sensor_id;sensor_type;location;lat;lon;timestamp;P1;durP1;ratioP1;P2;durP2;ratioP2
68858;SDS011;55864;49.238;8.092;2024-02-04T00:01:13;5.00;;;1.90;;
68858;SDS011;55864;49.238;8.092;2024-02-04T00:03:14;6.40;;;1.97;;
68858;SDS011;55864;49.238;8.092;2024-02-04T00:05:15;5.27;;;2.00;;
68858;SDS011;55864;49.238;8.092;2024-02-04T00:07:17;4.83;;;1.80;;
68858;SDS011;55864;49.238;8.092;2024-02-04T00:09:17;5.73;;;1.87;;
68858;SDS011;55864;49.238;8.092;2024-02-04T00:11:18;5.03;;;1.70;;
68858;SDS011;55864;49.238;8.092;2024-02-04T00:13:18;5.50;;;1.80;;
68858;SDS011;55864;49.238;8.092;2024-02-04T00:15:19;4.30;;;1.70;;
68858;SDS011;55864;49.238;8.092;2024-02-04T00:17:19;4.57;;;1.77;;
68858;SDS011;55864;49.238;8.092;2024-02-04T00:19:20;4.77;;;1.70;;
68858;SDS011;55864;49.238;8.092;2024-02-04T00:21:20;4.77;;;2.00;;
68858;SDS011;55864;49.238;8.092;2024-02-04T00:23:22;4.53;;;1.83;;
68858;SDS011;55864;49.238;8.092;2024-02-04T00:25:23;5.80;;;1.87;;
68858;SDS011;55864;49.238;8.092;2024-02-04T00:27:23;4.90;;;1.80;;
68858;SDS011;55864;49.238;8.092;2024-02-04T00:29:24;4.90;;;1.90;;
68858;SDS011;55864;49.238;8.092;2024-02-04T00:31:25;5.83;;;1.80;;
68858;SDS011;55864;49.238;8.092;2024-02-04T00:33:26;4.30;;;1.70;;
68858;SDS011;55864;49.238;8.092;2024-02-04T00:35:26;4.63;;;2.07;;
68858;SDS011;55864;49.238;8.092;2024-02-04T00:37:27;4.30;;;1.60;;
68858;SDS011;55864;49.238;8.092;2024-02-04T00:39:28;3.60;;;1.50;;
68858;SDS011;55864;49.238;8.092;2024-02-04T00:41:29;3.37;;;1.43;;
68858;SDS011;55864;49.238;8.092;2024-02-04T00:43:30;4.40;;;1.50;;
68858;SDS011;55864;49.238;8.092;2024-02-04T00:45:30;3.57;;;1.40;;
68858;SDS011;55864;49.238;8.092;2024-02-04T00:47:31;3.60;;;1.30;;
68858;SDS011;55864;49.238;8.092;2024-02-04T00:49:31;3.37;;;1.47;;
68858;SDS011;55864;49.238;8.092;2024-02-04T00:51:32;4.20;;;1.40;;
68858;SDS011;55864;49.238;8.092;2024-02-04T00:53:32;3.67;;;1.50;;
68858;SDS011;55864;49.238;8.092;2024-02-04T00:55:34;3.93;;;1.70;;
68858;SDS011;55864;49.238;8.092;2024-02-04T00:57:35;4.17;;;1.63;;
68858;SDS011;55864;49.238;8.092;2024-02-04T00:59:35;3.60;;;1.60;;
68858;SDS011;55864;49.238;8.092;2024-02-04T01:01:36;3.83;;;1.60;;
68858;SDS011;55864;49.238;8.092;2024-02-04T01:03:36;4.07;;;1.83;;
68858;SDS011;55864;49.238;8.092;2024-02-04T01:05:37;3.00;;;1.40;;
68858;SDS011;55864;49.238;8.092;2024-02-04T01:07:38;3.03;;;1.20;;
68858;SDS011;55864;49.238;8.092;2024-02-04T01:09:38;2.73;;;1.20;;
68858;SDS011;55864;49.238;8.092;2024-02-04T01:11:40;3.63;;;1.50;;
68858;SDS011;55864;49.238;8.092;2024-02-04T01:13:40;3.60;;;1.70;;
68858;SDS011;55864;49.238;8.092;2024-02-04T01:15:41;3.60;;;1.50;;
68858;SDS011;55864;49.238;8.092;2024-02-04T01:17:42;4.50;;;1.87;;
68858;SDS011;55864;49.238;8.092;2024-02-04T01:19:42;4.63;;;1.70;;
68858;SDS011;55864;49.238;8.092;2024-02-04T01:21:43;2.83;;;1.30;;
68858;SDS011;55864;49.238;8.092;2024-02-04T01:23:43;3.90;;;1.50;;
68858;SDS011;55864;49.238;8.092;2024-02-04T01:25:44;3.33;;;1.40;;
68858;SDS011;55864;49.238;8.092;2024-02-04T01:27:46;3.40;;;1.60;;
68858;SDS011;55864;49.238;8.092;2024-02-04T01:29:46;3.50;;;1.70;;
68858;SDS011;55864;49.238;8.092;2024-02-04T01:31:47;4.23;;;1.70;;
68858;SDS011;55864;49.238;8.092;2024-02-04T01:33:47;4.90;;;1.57;;
68858;SDS011;55864;49.238;8.092;2024-02-04T01:35:48;4.43;;;1.67;;
68858;SDS011;55864;49.238;8.092;2024-02-04T01:37:48;3.87;;;1.50;;
68858;SDS011;55864;49.238;8.092;2024-02-04T01:39:49;3.47;;;1.37;;
68858;SDS011;55864;49.238;8.092;2024-02-04T01:41:49;3.50;;;1.50;;
68858;SDS011;55864;49.238;8.092;2024-02-04T01:43:51;3.80;;;1.47;;
68858;SDS011;55864;49.238;8.092;2024-02-04T01:45:52;3.07;;;1.30;;
68858;SDS011;55864;49.238;8.092;2024-02-04T01:47:53;4.00;;;1.40;;
68858;SDS011;55864;49.238;8.092;2024-02-04T01:49:54;2.60;;;1.30;;
68858;SDS011;55864;49.238;8.092;2024-02-04T01:51:54;3.50;;;1.50;;
68858;SDS011;55864;49.238;8.092;2024-02-04T01:53:55;3.40;;;1.60;;
68858;SDS011;55864;49.238;8.092;2024-02-04T01:55:56;3.20;;;1.40;;
68858;SDS011;55864;49.238;8.092;2024-02-04T01:57:57;5.10;;;1.57;;
68858;SDS011;55864;49.238;8.092;2024-02-04T01:59:59;4.57;;;1.50;;
68858;SDS011;55864;49.238;8.092;2024-02-04T02:02:00;3.90;;;1.50;;
68858;SDS011;55864;49.238;8.092;2024-02-04T02:04:00;3.67;;;1.53;;
68858;SDS011;55864;49.238;8.092;2024-02-04T02:06:01;4.67;;;1.50;;
68858;SDS011;55864;49.238;8.092;2024-02-04T02:08:03;4.00;;;1.70;;
68858;SDS011;55864;49.238;8.092;2024-02-04T02:10:04;4.30;;;1.63;;
68858;SDS011;55864;49.238;8.092;2024-02-04T02:12:07;4.50;;;1.50;;
68858;SDS011;55864;49.238;8.092;2024-02-04T02:14:14;4.30;;;1.47;;
68858;SDS011;55864;49.238;8.092;2024-02-04T02:16:20;3.13;;;1.20;;
68858;SDS011;55864;49.238;8.092;2024-02-04T02:18:23;3.77;;;1.20;;
68858;SDS011;55864;49.238;8.092;2024-02-04T02:20:29;3.43;;;1.30;;
68858;SDS011;55864;49.238;8.092;2024-02-04T02:22:41;3.60;;;1.40;;
68858;SDS011;55864;49.238;8.092;2024-02-04T02:24:50;3.87;;;1.20;;
68858;SDS011;55864;49.238;8.092;2024-02-04T02:26:51;2.80;;;1.15;;
68858;SDS011;55864;49.238;8.092;2024-02-04T02:28:52;1.90;;;1.10;;
68858;SDS011;55864;49.238;8.092;2024-02-04T02:30:52;3.13;;;1.20;;
68858;SDS011;55864;49.238;8.092;2024-02-04T02:32:53;2.67;;;1.13;;
68858;SDS011;55864;49.238;8.092;2024-02-04T02:34:54;2.90;;;1.17;;
68858;SDS011;55864;49.238;8.092;2024-02-04T02:36:56;3.30;;;1.10;;
68858;SDS011;55864;49.238;8.092;2024-02-04T02:39:03;1.87;;;1.10;;
68858;SDS011;55864;49.238;8.092;2024-02-04T02:41:11;3.13;;;1.20;;
68858;SDS011;55864;49.238;8.092;2024-02-04T02:43:14;4.03;;;1.10;;
68858;SDS011;55864;49.238;8.092;2024-02-04T02:45:15;2.67;;;1.30;;
68858;SDS011;55864;49.238;8.092;2024-02-04T02:47:18;4.10;;;1.30;;
68858;SDS011;55864;49.238;8.092;2024-02-04T02:49:19;2.13;;;1.13;;
68858;SDS011;55864;49.238;8.092;2024-02-04T02:51:20;2.57;;;1.10;;
68858;SDS011;55864;49.238;8.092;2024-02-04T02:53:20;2.10;;;1.10;;
68858;SDS011;55864;49.238;8.092;2024-02-04T02:55:21;3.57;;;1.30;;
68858;SDS011;55864;49.238;8.092;2024-02-04T02:57:23;2.83;;;1.13;;
68858;SDS011;55864;49.238;8.092;2024-02-04T02:59:23;4.47;;;1.20;;
68858;SDS011;55864;49.238;8.092;2024-02-04T03:01:24;2.77;;;1.27;;
68858;SDS011;55864;49.238;8.092;2024-02-04T03:03:25;3.10;;;1.20;;
68858;SDS011;55864;49.238;8.092;2024-02-04T03:05:25;2.70;;;1.33;;
68858;SDS011;55864;49.238;8.092;2024-02-04T03:07:26;3.07;;;1.20;;
68858;SDS011;55864;49.238;8.092;2024-02-04T03:09:26;1.90;;;1.00;;
68858;SDS011;55864;49.238;8.092;2024-02-04T03:11:27;2.30;;;1.20;;
68858;SDS011;55864;49.238;8.092;2024-02-04T03:13:29;3.80;;;1.30;;
68858;SDS011;55864;49.238;8.092;2024-02-04T03:15:29;3.50;;;1.20;;
68858;SDS011;55864;49.238;8.092;2024-02-04T03:17:30;1.73;;;1.07;;
68858;SDS011;55864;49.238;8.092;2024-02-04T03:19:31;2.60;;;1.10;;
68858;SDS011;55864;49.238;8.092;2024-02-04T03:21:31;3.90;;;1.57;;
68858;SDS011;55864;49.238;8.092;2024-02-04T03:23:32;2.13;;;1.10;;
68858;SDS011;55864;49.238;8.092;2024-02-04T03:25:32;4.17;;;1.37;;
68858;SDS011;55864;49.238;8.092;2024-02-04T03:27:33;2.17;;;1.00;;
68858;SDS011;55864;49.238;8.092;2024-02-04T03:29:35;2.83;;;1.20;;
68858;SDS011;55864;49.238;8.092;2024-02-04T03:31:36;2.60;;;1.30;;
68858;SDS011;55864;49.238;8.092;2024-02-04T03:33:36;3.10;;;1.20;;
68858;SDS011;55864;49.238;8.092;2024-02-04T03:35:37;2.90;;;1.20;;
68858;SDS011;55864;49.238;8.092;2024-02-04T03:37:38;2.97;;;1.10;;
68858;SDS011;55864;49.238;8.092;2024-02-04T03:39:39;2.40;;;1.10;;
68858;SDS011;55864;49.238;8.092;2024-02-04T03:41:39;3.00;;;1.20;;
68858;SDS011;55864;49.238;8.092;2024-02-04T03:43:40;2.37;;;1.20;;
68858;SDS011;55864;49.238;8.092;2024-02-04T03:45:42;2.33;;;1.10;;
68858;SDS011;55864;49.238;8.092;2024-02-04T03:47:43;1.87;;;1.10;;
68858;SDS011;55864;49.238;8.092;2024-02-04T03:49:43;3.80;;;1.30;;
68858;SDS011;55864;49.238;8.092;2024-02-04T03:51:44;2.50;;;1.10;;
68858;SDS011;55864;49.238;8.092;2024-02-04T03:53:45;2.33;;;1.10;;
68858;SDS011;55864;49.238;8.092;2024-02-04T03:55:45;2.10;;;1.10;;
68858;SDS011;55864;49.238;8.092;2024-02-04T03:57:47;2.17;;;1.10;;
68858;SDS011;55864;49.238;8.092;2024-02-04T03:59:47;1.70;;;1.10;;
68858;SDS011;55864;49.238;8.092;2024-02-04T04:01:50;1.93;;;1.20;;
68858;SDS011;55864;49.238;8.092;2024-02-04T04:03:51;3.60;;;1.42;;
68858;SDS011;55864;49.238;8.092;2024-02-04T04:05:52;2.87;;;1.27;;
68858;SDS011;55864;49.238;8.092;2024-02-04T04:07:53;2.83;;;1.27;;
68858;SDS011;55864;49.238;8.092;2024-02-04T04:09:54;2.77;;;1.20;;
68858;SDS011;55864;49.238;8.092;2024-02-04T04:11:54;2.43;;;1.20;;
68858;SDS011;55864;49.238;8.092;2024-02-04T04:13:55;3.83;;;1.40;;
68858;SDS011;55864;49.238;8.092;2024-02-04T04:15:55;2.43;;;1.20;;
68858;SDS011;55864;49.238;8.092;2024-02-04T04:17:57;2.87;;;1.10;;
68858;SDS011;55864;49.238;8.092;2024-02-04T04:19:58;2.90;;;1.20;;
68858;SDS011;55864;49.238;8.092;2024-02-04T04:21:58;2.50;;;1.33;;
68858;SDS011;55864;49.238;8.092;2024-02-04T04:23:59;2.97;;;1.10;;
68858;SDS011;55864;49.238;8.092;2024-02-04T04:25:59;2.87;;;1.30;;
68858;SDS011;55864;49.238;8.092;2024-02-04T04:28:00;3.20;;;1.17;;
68858;SDS011;55864;49.238;8.092;2024-02-04T04:30:01;4.03;;;1.37;;
68858;SDS011;55864;49.238;8.092;2024-02-04T04:32:01;2.80;;;1.37;;
68858;SDS011;55864;49.238;8.092;2024-02-04T04:34:03;1.73;;;1.07;;
68858;SDS011;55864;49.238;8.092;2024-02-04T04:36:04;2.87;;;1.30;;
68858;SDS011;55864;49.238;8.092;2024-02-04T04:38:05;2.93;;;1.50;;
68858;SDS011;55864;49.238;8.092;2024-02-04T04:40:06;3.33;;;1.30;;
68858;SDS011;55864;49.238;8.092;2024-02-04T04:42:07;2.07;;;1.20;;
68858;SDS011;55864;49.238;8.092;2024-02-04T04:44:07;2.57;;;1.20;;
68858;SDS011;55864;49.238;8.092;2024-02-04T04:46:08;1.97;;;1.10;;
68858;SDS011;55864;49.238;8.092;2024-02-04T04:48:08;2.60;;;1.20;;
68858;SDS011;55864;49.238;8.092;2024-02-04T04:50:10;1.87;;;1.10;;
68858;SDS011;55864;49.238;8.092;2024-02-04T04:52:11;2.77;;;1.10;;
68858;SDS011;55864;49.238;8.092;2024-02-04T04:54:12;2.67;;;1.20;;
68858;SDS011;55864;49.238;8.092;2024-02-04T04:56:12;2.27;;;1.10;;
68858;SDS011;55864;49.238;8.092;2024-02-04T04:58:13;2.20;;;1.10;;
68858;SDS011;55864;49.238;8.092;2024-02-04T05:00:14;2.30;;;1.33;;
68858;SDS011;55864;49.238;8.092;2024-02-04T05:02:15;2.37;;;1.20;;
68858;SDS011;55864;49.238;8.092;2024-02-04T05:04:16;2.23;;;1.10;;
68858;SDS011;55864;49.238;8.092;2024-02-04T05:06:18;2.37;;;1.10;;
68858;SDS011;55864;49.238;8.092;2024-02-04T05:08:19;2.50;;;1.13;;
68858;SDS011;55864;49.238;8.092;2024-02-04T05:10:19;3.97;;;1.20;;
68858;SDS011;55864;49.238;8.092;2024-02-04T05:12:20;1.30;;;0.80;;
68858;SDS011;55864;49.238;8.092;2024-02-04T05:14:21;2.13;;;1.00;;
68858;SDS011;55864;49.238;8.092;2024-02-04T05:16:21;3.20;;;1.00;;
68858;SDS011;55864;49.238;8.092;2024-02-04T05:18:22;2.40;;;1.10;;
68858;SDS011;55864;49.238;8.092;2024-02-04T05:20:22;2.80;;;1.00;;
68858;SDS011;55864;49.238;8.092;2024-02-04T05:22:24;5.43;;;1.17;;
68858;SDS011;55864;49.238;8.092;2024-02-04T05:24:25;2.10;;;0.90;;
68858;SDS011;55864;49.238;8.092;2024-02-04T05:26:25;1.63;;;1.10;;
68858;SDS011;55864;49.238;8.092;2024-02-04T05:28:26;2.13;;;0.90;;
68858;SDS011;55864;49.238;8.092;2024-02-04T05:30:26;1.70;;;1.00;;
68858;SDS011;55864;49.238;8.092;2024-02-04T05:32:27;1.17;;;0.90;;
68858;SDS011;55864;49.238;8.092;2024-02-04T05:34:27;2.53;;;1.10;;
68858;SDS011;55864;49.238;8.092;2024-02-04T05:36:28;2.93;;;0.90;;
68858;SDS011;55864;49.238;8.092;2024-02-04T05:38:30;2.23;;;1.00;;
68858;SDS011;55864;49.238;8.092;2024-02-04T05:40:31;2.00;;;1.00;;
68858;SDS011;55864;49.238;8.092;2024-02-04T05:42:31;2.17;;;1.10;;
68858;SDS011;55864;49.238;8.092;2024-02-04T05:44:32;1.53;;;0.90;;
68858;SDS011;55864;49.238;8.092;2024-02-04T05:46:32;1.77;;;1.00;;
68858;SDS011;55864;49.238;8.092;2024-02-04T05:48:33;1.50;;;0.90;;
68858;SDS011;55864;49.238;8.092;2024-02-04T05:50:33;1.83;;;1.00;;
68858;SDS011;55864;49.238;8.092;2024-02-04T05:52:34;1.27;;;0.80;;
68858;SDS011;55864;49.238;8.092;2024-02-04T05:54:38;2.20;;;1.03;;
68858;SDS011;55864;49.238;8.092;2024-02-04T05:56:39;1.07;;;0.90;;
68858;SDS011;55864;49.238;8.092;2024-02-04T05:58:39;1.70;;;1.03;;
68858;SDS011;55864;49.238;8.092;2024-02-04T06:00:40;1.33;;;0.90;;
68858;SDS011;55864;49.238;8.092;2024-02-04T06:02:40;1.20;;;0.90;;
68858;SDS011;55864;49.238;8.092;2024-02-04T06:04:41;2.03;;;0.93;;
68858;SDS011;55864;49.238;8.092;2024-02-04T06:06:41;1.93;;;1.00;;
68858;SDS011;55864;49.238;8.092;2024-02-04T06:08:42;1.27;;;0.90;;
68858;SDS011;55864;49.238;8.092;2024-02-04T06:10:44;1.73;;;1.00;;
68858;SDS011;55864;49.238;8.092;2024-02-04T06:12:45;2.27;;;0.90;;
68858;SDS011;55864;49.238;8.092;2024-02-04T06:14:45;2.50;;;1.00;;
68858;SDS011;55864;49.238;8.092;2024-02-04T06:16:46;2.37;;;1.13;;
68858;SDS011;55864;49.238;8.092;2024-02-04T06:18:46;1.67;;;1.00;;
68858;SDS011;55864;49.238;8.092;2024-02-04T06:20:47;1.83;;;1.00;;
68858;SDS011;55864;49.238;8.092;2024-02-04T06:22:47;2.93;;;1.20;;
68858;SDS011;55864;49.238;8.092;2024-02-04T06:24:48;5.37;;;1.90;;
68858;SDS011;55864;49.238;8.092;2024-02-04T06:26:50;4.30;;;1.40;;
68858;SDS011;55864;49.238;8.092;2024-02-04T06:28:50;4.43;;;1.77;;
68858;SDS011;55864;49.238;8.092;2024-02-04T06:30:51;3.60;;;1.40;;
68858;SDS011;55864;49.238;8.092;2024-02-04T06:32:51;3.30;;;1.23;;
68858;SDS011;55864;49.238;8.092;2024-02-04T06:34:52;4.03;;;1.73;;
68858;SDS011;55864;49.238;8.092;2024-02-04T06:36:52;3.17;;;1.40;;
68858;SDS011;55864;49.238;8.092;2024-02-04T06:38:53;2.10;;;1.07;;
68858;SDS011;55864;49.238;8.092;2024-02-04T06:40:53;2.23;;;1.10;;
68858;SDS011;55864;49.238;8.092;2024-02-04T06:42:55;3.03;;;1.20;;
68858;SDS011;55864;49.238;8.092;2024-02-04T06:44:56;3.97;;;1.30;;
68858;SDS011;55864;49.238;8.092;2024-02-04T06:46:56;3.63;;;1.17;;
68858;SDS011;55864;49.238;8.092;2024-02-04T06:48:57;3.93;;;1.20;;
68858;SDS011;55864;49.238;8.092;2024-02-04T06:50:57;2.33;;;1.00;;
68858;SDS011;55864;49.238;8.092;2024-02-04T06:52:58;2.03;;;0.97;;
68858;SDS011;55864;49.238;8.092;2024-02-04T06:54:59;3.30;;;1.20;;
68858;SDS011;55864;49.238;8.092;2024-02-04T06:56:59;4.40;;;1.20;;
68858;SDS011;55864;49.238;8.092;2024-02-04T06:59:01;2.37;;;1.10;;
68858;SDS011;55864;49.238;8.092;2024-02-04T07:01:02;2.70;;;1.10;;
68858;SDS011;55864;49.238;8.092;2024-02-04T07:03:02;1.97;;;1.00;;
68858;SDS011;55864;49.238;8.092;2024-02-04T07:05:03;2.23;;;1.20;;
68858;SDS011;55864;49.238;8.092;2024-02-04T07:07:04;3.53;;;1.30;;
68858;SDS011;55864;49.238;8.092;2024-02-04T07:09:05;2.03;;;1.10;;
68858;SDS011;55864;49.238;8.092;2024-02-04T07:11:05;1.47;;;1.00;;
68858;SDS011;55864;49.238;8.092;2024-02-04T07:13:06;1.20;;;0.80;;
68858;SDS011;55864;49.238;8.092;2024-02-04T07:15:08;1.90;;;1.10;;
68858;SDS011;55864;49.238;8.092;2024-02-04T07:17:09;3.23;;;1.17;;
68858;SDS011;55864;49.238;8.092;2024-02-04T07:19:09;2.13;;;1.03;;
68858;SDS011;55864;49.238;8.092;2024-02-04T07:21:10;2.57;;;1.10;;
68858;SDS011;55864;49.238;8.092;2024-02-04T07:23:10;2.23;;;1.17;;
68858;SDS011;55864;49.238;8.092;2024-02-04T07:25:11;2.03;;;1.00;;
68858;SDS011;55864;49.238;8.092;2024-02-04T07:27:11;2.47;;;1.00;;
68858;SDS011;55864;49.238;8.092;2024-02-04T07:29:12;2.23;;;1.10;;
68858;SDS011;55864;49.238;8.092;2024-02-04T07:31:14;3.90;;;1.60;;
68858;SDS011;55864;49.238;8.092;2024-02-04T07:33:14;2.57;;;1.20;;
68858;SDS011;55864;49.238;8.092;2024-02-04T07:35:15;1.73;;;1.10;;
68858;SDS011;55864;49.238;8.092;2024-02-04T07:37:16;4.17;;;1.43;;
68858;SDS011;55864;49.238;8.092;2024-02-04T07:39:16;5.60;;;1.23;;
68858;SDS011;55864;49.238;8.092;2024-02-04T07:41:17;2.53;;;1.00;;
68858;SDS011;55864;49.238;8.092;2024-02-04T07:43:17;4.93;;;1.40;;
68858;SDS011;55864;49.238;8.092;2024-02-04T07:45:18;2.87;;;1.20;;
68858;SDS011;55864;49.238;8.092;2024-02-04T07:47:20;2.97;;;1.20;;
68858;SDS011;55864;49.238;8.092;2024-02-04T07:49:20;1.70;;;1.00;;
68858;SDS011;55864;49.238;8.092;2024-02-04T07:51:21;3.03;;;1.07;;
68858;SDS011;55864;49.238;8.092;2024-02-04T07:53:21;2.73;;;0.93;;
68858;SDS011;55864;49.238;8.092;2024-02-04T07:55:22;3.07;;;1.10;;
68858;SDS011;55864;49.238;8.092;2024-02-04T07:57:22;4.00;;;1.20;;
68858;SDS011;55864;49.238;8.092;2024-02-04T07:59:23;3.70;;;1.33;;
68858;SDS011;55864;49.238;8.092;2024-02-04T08:01:23;3.47;;;1.23;;
68858;SDS011;55864;49.238;8.092;2024-02-04T08:03:25;4.40;;;1.30;;
68858;SDS011;55864;49.238;8.092;2024-02-04T08:05:26;5.00;;;1.50;;
68858;SDS011;55864;49.238;8.092;2024-02-04T08:07:26;3.57;;;1.40;;
68858;SDS011;55864;49.238;8.092;2024-02-04T08:09:27;2.73;;;1.20;;
68858;SDS011;55864;49.238;8.092;2024-02-04T08:11:28;2.80;;;1.30;;
68858;SDS011;55864;49.238;8.092;2024-02-04T08:13:28;3.37;;;1.23;;
68858;SDS011;55864;49.238;8.092;2024-02-04T08:15:29;2.73;;;1.23;;
68858;SDS011;55864;49.238;8.092;2024-02-04T08:17:29;3.67;;;1.30;;
68858;SDS011;55864;49.238;8.092;2024-02-04T08:19:31;3.07;;;1.30;;
68858;SDS011;55864;49.238;8.092;2024-02-04T08:21:32;2.90;;;1.20;;
68858;SDS011;55864;49.238;8.092;2024-02-04T08:23:32;4.27;;;1.40;;
68858;SDS011;55864;49.238;8.092;2024-02-04T08:25:33;3.40;;;1.60;;
68858;SDS011;55864;49.238;8.092;2024-02-04T08:27:33;3.17;;;1.30;;
68858;SDS011;55864;49.238;8.092;2024-02-04T08:29:34;2.90;;;1.23;;
68858;SDS011;55864;49.238;8.092;2024-02-04T08:31:34;2.50;;;1.20;;
68858;SDS011;55864;49.238;8.092;2024-02-04T08:33:35;1.93;;;1.20;;
68858;SDS011;55864;49.238;8.092;2024-02-04T08:35:37;2.27;;;1.10;;
68858;SDS011;55864;49.238;8.092;2024-02-04T08:37:37;3.20;;;1.13;;
68858;SDS011;55864;49.238;8.092;2024-02-04T08:39:38;2.63;;;1.10;;
68858;SDS011;55864;49.238;8.092;2024-02-04T08:41:38;3.00;;;1.27;;
68858;SDS011;55864;49.238;8.092;2024-02-04T08:43:39;3.23;;;1.10;;
68858;SDS011;55864;49.238;8.092;2024-02-04T08:45:39;2.47;;;1.13;;
68858;SDS011;55864;49.238;8.092;2024-02-04T08:47:41;3.53;;;1.20;;
68858;SDS011;55864;49.238;8.092;2024-02-04T08:49:42;2.63;;;1.07;;
68858;SDS011;55864;49.238;8.092;2024-02-04T08:51:44;2.13;;;1.00;;
68858;SDS011;55864;49.238;8.092;2024-02-04T08:53:44;2.50;;;1.20;;
68858;SDS011;55864;49.238;8.092;2024-02-04T08:55:45;2.57;;;1.10;;
68858;SDS011;55864;49.238;8.092;2024-02-04T08:57:45;2.57;;;1.10;;
68858;SDS011;55864;49.238;8.092;2024-02-04T08:59:46;3.47;;;1.30;;
68858;SDS011;55864;49.238;8.092;2024-02-04T09:01:46;3.07;;;1.07;;
68858;SDS011;55864;49.238;8.092;2024-02-04T09:03:47;3.47;;;1.17;;
68858;SDS011;55864;49.238;8.092;2024-02-04T09:05:51;3.27;;;1.20;;
68858;SDS011;55864;49.238;8.092;2024-02-04T09:07:53;2.90;;;1.13;;
68858;SDS011;55864;49.238;8.092;2024-02-04T09:09:54;2.53;;;1.30;;
68858;SDS011;55864;49.238;8.092;2024-02-04T09:11:54;3.57;;;1.53;;
68858;SDS011;55864;49.238;8.092;2024-02-04T09:13:55;3.73;;;1.40;;
68858;SDS011;55864;49.238;8.092;2024-02-04T09:15:56;3.27;;;1.43;;
68858;SDS011;55864;49.238;8.092;2024-02-04T09:17:57;3.57;;;1.50;;
68858;SDS011;55864;49.238;8.092;2024-02-04T09:19:58;4.40;;;1.83;;
68858;SDS011;55864;49.238;8.092;2024-02-04T09:21:58;3.10;;;1.50;;
68858;SDS011;55864;49.238;8.092;2024-02-04T09:24:00;4.73;;;1.60;;
68858;SDS011;55864;49.238;8.092;2024-02-04T09:26:01;3.07;;;1.53;;
68858;SDS011;55864;49.238;8.092;2024-02-04T09:28:03;2.87;;;1.40;;
68858;SDS011;55864;49.238;8.092;2024-02-04T09:30:04;2.33;;;1.10;;
68858;SDS011;55864;49.238;8.092;2024-02-04T09:32:06;4.80;;;2.00;;
68858;SDS011;55864;49.238;8.092;2024-02-04T09:34:06;4.40;;;1.93;;
68858;SDS011;55864;49.238;8.092;2024-02-04T09:36:07;2.97;;;1.30;;
68858;SDS011;55864;49.238;8.092;2024-02-04T09:38:08;3.13;;;1.30;;
68858;SDS011;55864;49.238;8.092;2024-02-04T09:40:10;4.03;;;1.40;;
68858;SDS011;55864;49.238;8.092;2024-02-04T09:42:14;3.63;;;1.40;;
68858;SDS011;55864;49.238;8.092;2024-02-04T09:44:19;3.60;;;1.40;;
68858;SDS011;55864;49.238;8.092;2024-02-04T09:46:23;5.50;;;1.53;;
68858;SDS011;55864;49.238;8.092;2024-02-04T09:48:24;4.13;;;1.33;;
68858;SDS011;55864;49.238;8.092;2024-02-04T09:50:25;3.03;;;1.30;;
68858;SDS011;55864;49.238;8.092;2024-02-04T09:52:27;3.87;;;1.70;;
68858;SDS011;55864;49.238;8.092;2024-02-04T09:54:29;4.80;;;1.73;;
68858;SDS011;55864;49.238;8.092;2024-02-04T09:56:33;3.83;;;1.40;;
68858;SDS011;55864;49.238;8.092;2024-02-04T09:58:37;4.03;;;1.50;;
68858;SDS011;55864;49.238;8.092;2024-02-04T10:00:38;4.53;;;1.50;;
68858;SDS011;55864;49.238;8.092;2024-02-04T10:02:41;3.93;;;1.40;;
68858;SDS011;55864;49.238;8.092;2024-02-04T10:04:41;5.13;;;1.50;;
68858;SDS011;55864;49.238;8.092;2024-02-04T10:06:42;4.67;;;1.40;;
68858;SDS011;55864;49.238;8.092;2024-02-04T10:08:43;4.83;;;1.57;;
68858;SDS011;55864;49.238;8.092;2024-02-04T10:10:44;4.50;;;1.70;;
68858;SDS011;55864;49.238;8.092;2024-02-04T10:12:46;3.37;;;1.37;;
68858;SDS011;55864;49.238;8.092;2024-02-04T10:14:48;4.43;;;1.60;;
68858;SDS011;55864;49.238;8.092;2024-02-04T10:16:49;3.50;;;1.47;;
68858;SDS011;55864;49.238;8.092;2024-02-04T10:18:50;3.50;;;1.33;;
68858;SDS011;55864;49.238;8.092;2024-02-04T10:20:52;3.53;;;1.30;;
68858;SDS011;55864;49.238;8.092;2024-02-04T10:22:53;4.00;;;1.50;;
68858;SDS011;55864;49.238;8.092;2024-02-04T10:24:53;3.87;;;1.43;;
68858;SDS011;55864;49.238;8.092;2024-02-04T10:27:05;5.30;;;1.73;;
68858;SDS011;55864;49.238;8.092;2024-02-04T10:29:08;3.97;;;1.60;;
68858;SDS011;55864;49.238;8.092;2024-02-04T10:31:08;3.83;;;1.40;;
68858;SDS011;55864;49.238;8.092;2024-02-04T10:33:09;4.73;;;2.00;;
68858;SDS011;55864;49.238;8.092;2024-02-04T10:35:09;5.30;;;2.10;;
68858;SDS011;55864;49.238;8.092;2024-02-04T10:37:10;4.90;;;1.80;;
68858;SDS011;55864;49.238;8.092;2024-02-04T10:39:12;3.77;;;1.57;;
68858;SDS011;55864;49.238;8.092;2024-02-04T10:41:14;3.43;;;1.50;;
68858;SDS011;55864;49.238;8.092;2024-02-04T10:43:15;4.60;;;1.80;;
68858;SDS011;55864;49.238;8.092;2024-02-04T10:45:18;5.10;;;1.83;;
68858;SDS011;55864;49.238;8.092;2024-02-04T10:47:24;4.40;;;1.70;;
68858;SDS011;55864;49.238;8.092;2024-02-04T10:49:30;4.30;;;1.60;;
68858;SDS011;55864;49.238;8.092;2024-02-04T10:51:34;5.05;;;1.50;;
68858;SDS011;55864;49.238;8.092;2024-02-04T10:53:40;3.70;;;1.40;;
68858;SDS011;55864;49.238;8.092;2024-02-04T10:55:41;3.00;;;1.25;;
68858;SDS011;55864;49.238;8.092;2024-02-04T10:57:46;2.07;;;1.10;;
68858;SDS011;55864;49.238;8.092;2024-02-04T10:59:47;3.03;;;1.30;;
68858;SDS011;55864;49.238;8.092;2024-02-04T11:01:49;3.57;;;1.40;;
68858;SDS011;55864;49.238;8.092;2024-02-04T11:03:50;4.87;;;1.67;;
68858;SDS011;55864;49.238;8.092;2024-02-04T11:05:52;5.57;;;1.73;;
68858;SDS011;55864;49.238;8.092;2024-02-04T11:07:54;4.10;;;1.70;;
68858;SDS011;55864;49.238;8.092;2024-02-04T11:09:55;3.83;;;1.40;;
68858;SDS011;55864;49.238;8.092;2024-02-04T11:11:58;3.87;;;1.70;;
68858;SDS011;55864;49.238;8.092;2024-02-04T11:14:00;4.90;;;1.67;;
68858;SDS011;55864;49.238;8.092;2024-02-04T11:16:04;6.07;;;1.88;;
68858;SDS011;55864;49.238;8.092;2024-02-04T11:18:14;3.33;;;1.30;;
68858;SDS011;55864;49.238;8.092;2024-02-04T11:20:37;4.03;;;1.70;;
68858;SDS011;55864;49.238;8.092;2024-02-04T11:22:55;3.90;;;1.40;;
68858;SDS011;55864;49.238;8.092;2024-02-04T11:25:21;3.67;;;1.47;;
68858;SDS011;55864;49.238;8.092;2024-02-04T11:27:39;3.80;;;1.30;;
68858;SDS011;55864;49.238;8.092;2024-02-04T11:29:40;3.97;;;1.57;;
68858;SDS011;55864;49.238;8.092;2024-02-04T11:31:41;5.73;;;1.90;;
68858;SDS011;55864;49.238;8.092;2024-02-04T11:33:42;3.43;;;1.40;;
68858;SDS011;55864;49.238;8.092;2024-02-04T11:35:44;4.47;;;1.52;;
68858;SDS011;55864;49.238;8.092;2024-02-04T11:37:45;3.50;;;1.30;;
68858;SDS011;55864;49.238;8.092;2024-02-04T11:39:49;3.60;;;1.50;;
68858;SDS011;55864;49.238;8.092;2024-02-04T11:41:50;4.10;;;1.40;;
68858;SDS011;55864;49.238;8.092;2024-02-04T11:43:51;4.20;;;1.40;;
68858;SDS011;55864;49.238;8.092;2024-02-04T11:45:53;3.47;;;1.40;;
68858;SDS011;55864;49.238;8.092;2024-02-04T11:47:58;3.30;;;1.40;;
68858;SDS011;55864;49.238;8.092;2024-02-04T11:50:02;4.17;;;1.43;;
68858;SDS011;55864;49.238;8.092;2024-02-04T11:52:03;3.67;;;1.42;;
68858;SDS011;55864;49.238;8.092;2024-02-04T11:54:04;3.57;;;1.50;;
68858;SDS011;55864;49.238;8.092;2024-02-04T11:56:05;2.73;;;1.30;;
68858;SDS011;55864;49.238;8.092;2024-02-04T11:58:06;3.83;;;1.30;;
68858;SDS011;55864;49.238;8.092;2024-02-04T12:00:07;4.70;;;1.50;;
68858;SDS011;55864;49.238;8.092;2024-02-04T12:02:08;3.00;;;1.40;;
68858;SDS011;55864;49.238;8.092;2024-02-04T12:04:10;3.03;;;1.40;;
68858;SDS011;55864;49.238;8.092;2024-02-04T12:08:15;5.70;;;2.53;;
68858;SDS011;55864;49.238;8.092;2024-02-04T12:10:15;3.80;;;1.53;;
68858;SDS011;55864;49.238;8.092;2024-02-04T12:12:16;3.80;;;1.60;;
68858;SDS011;55864;49.238;8.092;2024-02-04T12:14:17;3.20;;;1.30;;